sensor_id;sensor_type;location;lat;lon;timestamp;temperature;humidity
64924;HTU21D;51436;44.692;39.214;2023-09-19T00:00:38;12.61;61.45
64924;HTU21D;51436;44.692;39.214;2023-09-19T00:03:06;12.60;61.47
64924;HTU21D;51436;44.692;39.214;2023-09-19T00:05:37;12.58;61.41
64924;HTU21D;51436;44.692;39.214;2023-09-19T00:08:10;12.56;61.49
64924;HTU21D;51436;44.692;39.214;2023-09-19T00:10:36;12.56;61.44
64924;HTU21D;51436;44.692;39.214;2023-09-19T00:13:04;12.52;61.44
64924;HTU21D;51436;44.692;39.214;2023-09-19T00:15:37;12.47;61.52
64924;HTU21D;51436;44.692;39.214;2023-09-19T00:18:04;12.46;61.54
64924;HTU21D;51436;44.692;39.214;2023-09-19T00:20:38;12.50;61.44
64924;HTU21D;51436;44.692;39.214;2023-09-19T00:23:05;12.53;61.34
64924;HTU21D;51436;44.692;39.214;2023-09-19T00:25:31;12.55;61.32
64924;HTU21D;51436;44.692;39.214;2023-09-19T00:27:58;12.49;61.38
64924;HTU21D;51436;44.692;39.214;2023-09-19T00:30:24;12.51;61.30
64924;HTU21D;51436;44.692;39.214;2023-09-19T00:32:51;12.52;61.23
64924;HTU21D;51436;44.692;39.214;2023-09-19T00:35:21;12.52;61.22
64924;HTU21D;51436;44.692;39.214;2023-09-19T00:37:51;12.50;61.27
64924;HTU21D;51436;44.692;39.214;2023-09-19T00:40:18;12.46;61.33
64924;HTU21D;51436;44.692;39.214;2023-09-19T00:42:46;12.40;61.48
64924;HTU21D;51436;44.692;39.214;2023-09-19T00:45:16;12.32;61.62
64924;HTU21D;51436;44.692;39.214;2023-09-19T00:47:50;12.32;61.56
64924;HTU21D;51436;44.692;39.214;2023-09-19T00:50:19;12.30;61.59
64924;HTU21D;51436;44.692;39.214;2023-09-19T00:52:48;12.26;61.61
64924;HTU21D;51436;44.692;39.214;2023-09-19T00:55:16;12.23;61.68
64924;HTU21D;51436;44.692;39.214;2023-09-19T00:57:45;12.20;61.71
64924;HTU21D;51436;44.692;39.214;2023-09-19T01:00:13;12.18;61.75
64924;HTU21D;51436;44.692;39.214;2023-09-19T01:02:45;12.14;61.80
64924;HTU21D;51436;44.692;39.214;2023-09-19T01:05:13;12.13;61.79
64924;HTU21D;51436;44.692;39.214;2023-09-19T01:08:08;12.12;61.70
64924;HTU21D;51436;44.692;39.214;2023-09-19T01:10:54;12.08;61.71
64924;HTU21D;51436;44.692;39.214;2023-09-19T01:38:04;11.68;62.12
64924;HTU21D;51436;44.692;39.214;2023-09-19T01:40:42;11.69;62.05
64924;HTU21D;51436;44.692;39.214;2023-09-19T01:43:16;11.68;62.04
64924;HTU21D;51436;44.692;39.214;2023-09-19T01:46:04;11.64;62.05
64924;HTU21D;51436;44.692;39.214;2023-09-19T01:48:58;11.60;62.10
64924;HTU21D;51436;44.692;39.214;2023-09-19T01:51:42;11.54;62.21
64924;HTU21D;51436;44.692;39.214;2023-09-19T01:54:12;11.52;62.27
64924;HTU21D;51436;44.692;39.214;2023-09-19T01:56:50;11.48;62.27
64924;HTU21D;51436;44.692;39.214;2023-09-19T01:59:24;11.44;62.33
64924;HTU21D;51436;44.692;39.214;2023-09-19T02:02:21;11.42;62.27
64924;HTU21D;51436;44.692;39.214;2023-09-19T02:04:49;11.42;62.33
64924;HTU21D;51436;44.692;39.214;2023-09-19T02:07:19;11.45;62.18
64924;HTU21D;51436;44.692;39.214;2023-09-19T02:09:45;11.45;62.15
64924;HTU21D;51436;44.692;39.214;2023-09-19T02:12:14;11.41;62.18
64924;HTU21D;51436;44.692;39.214;2023-09-19T02:14:41;11.38;62.24
64924;HTU21D;51436;44.692;39.214;2023-09-19T02:17:08;11.32;62.37
64924;HTU21D;51436;44.692;39.214;2023-09-19T02:19:37;11.29;62.42
64924;HTU21D;51436;44.692;39.214;2023-09-19T02:22:05;11.27;62.44
64924;HTU21D;51436;44.692;39.214;2023-09-19T02:24:34;11.26;62.40
64924;HTU21D;51436;44.692;39.214;2023-09-19T02:27:01;11.26;62.36
64924;HTU21D;51436;44.692;39.214;2023-09-19T02:29:32;11.29;62.21
64924;HTU21D;51436;44.692;39.214;2023-09-19T02:32:18;11.29;62.19
64924;HTU21D;51436;44.692;39.214;2023-09-19T02:34:46;11.24;62.30
64924;HTU21D;51436;44.692;39.214;2023-09-19T02:37:13;11.22;62.30
64924;HTU21D;51436;44.692;39.214;2023-09-19T02:39:42;11.17;62.36
64924;HTU21D;51436;44.692;39.214;2023-09-19T02:42:09;11.15;62.37
64924;HTU21D;51436;44.692;39.214;2023-09-19T02:44:35;11.15;62.33
64924;HTU21D;51436;44.692;39.214;2023-09-19T02:47:01;11.13;62.30
64924;HTU21D;51436;44.692;39.214;2023-09-19T02:49:28;11.14;62.27
64924;HTU21D;51436;44.692;39.214;2023-09-19T02:51:55;11.05;62.37
64924;HTU21D;51436;44.692;39.214;2023-09-19T02:54:21;10.97;62.56
64924;HTU21D;51436;44.692;39.214;2023-09-19T02:56:48;10.95;62.57
64924;HTU21D;51436;44.692;39.214;2023-09-19T02:59:14;10.94;62.51
64924;HTU21D;51436;44.692;39.214;2023-09-19T03:01:45;10.94;62.45
64924;HTU21D;51436;44.692;39.214;2023-09-19T03:04:14;10.94;62.44
64924;HTU21D;51436;44.692;39.214;2023-09-19T03:06:47;10.92;62.46
64924;HTU21D;51436;44.692;39.214;2023-09-19T03:09:14;10.90;62.41
64924;HTU21D;51436;44.692;39.214;2023-09-19T03:11:42;10.86;62.44
64924;HTU21D;51436;44.692;39.214;2023-09-19T03:14:10;10.82;62.51
64924;HTU21D;51436;44.692;39.214;2023-09-19T03:16:37;10.81;62.45
64924;HTU21D;51436;44.692;39.214;2023-09-19T03:19:04;10.79;62.46
64924;HTU21D;51436;44.692;39.214;2023-09-19T03:21:32;10.78;62.48
64924;HTU21D;51436;44.692;39.214;2023-09-19T03:23:58;10.79;62.46
64924;HTU21D;51436;44.692;39.214;2023-09-19T03:26:25;10.80;62.41
64924;HTU21D;51436;44.692;39.214;2023-09-19T03:28:53;10.80;62.37
64924;HTU21D;51436;44.692;39.214;2023-09-19T03:31:20;10.81;62.28
64924;HTU21D;51436;44.692;39.214;2023-09-19T03:33:47;10.83;62.28
64924;HTU21D;51436;44.692;39.214;2023-09-19T03:36:13;10.88;62.16
64924;HTU21D;51436;44.692;39.214;2023-09-19T03:38:40;10.96;62.02
64924;HTU21D;51436;44.692;39.214;2023-09-19T03:41:06;11.00;61.90
64924;HTU21D;51436;44.692;39.214;2023-09-19T03:43:35;11.04;61.81
64924;HTU21D;51436;44.692;39.214;2023-09-19T03:46:03;11.09;61.77
64924;HTU21D;51436;44.692;39.214;2023-09-19T03:48:34;11.07;61.83
64924;HTU21D;51436;44.692;39.214;2023-09-19T03:51:02;11.14;61.70
64924;HTU21D;51436;44.692;39.214;2023-09-19T03:53:28;11.17;61.60
64924;HTU21D;51436;44.692;39.214;2023-09-19T03:55:55;11.19;61.59
64924;HTU21D;51436;44.692;39.214;2023-09-19T03:58:28;11.19;61.61
64924;HTU21D;51436;44.692;39.214;2023-09-19T04:01:17;11.30;61.44
64924;HTU21D;51436;44.692;39.214;2023-09-19T04:04:07;11.41;61.30
64924;HTU21D;51436;44.692;39.214;2023-09-19T04:06:38;11.58;61.02
64924;HTU21D;51436;44.692;39.214;2023-09-19T04:09:10;11.83;60.60
64924;HTU21D;51436;44.692;39.214;2023-09-19T04:11:38;12.00;60.29
64924;HTU21D;51436;44.692;39.214;2023-09-19T04:14:04;12.19;59.99
64924;HTU21D;51436;44.692;39.214;2023-09-19T04:16:31;12.36;59.73
64924;HTU21D;51436;44.692;39.214;2023-09-19T04:18:58;12.53;59.48
64924;HTU21D;51436;44.692;39.214;2023-09-19T04:21:25;12.65;59.33
64924;HTU21D;51436;44.692;39.214;2023-09-19T04:23:52;12.81;59.14
64924;HTU21D;51436;44.692;39.214;2023-09-19T04:26:18;12.94;58.99
64924;HTU21D;51436;44.692;39.214;2023-09-19T04:28:45;13.06;58.83
64924;HTU21D;51436;44.692;39.214;2023-09-19T04:31:14;13.20;58.72
64924;HTU21D;51436;44.692;39.214;2023-09-19T04:33:40;13.32;58.62
64924;HTU21D;51436;44.692;39.214;2023-09-19T04:36:09;13.41;58.53
64924;HTU21D;51436;44.692;39.214;2023-09-19T04:38:36;13.51;58.40
64924;HTU21D;51436;44.692;39.214;2023-09-19T04:41:02;13.58;58.38
64924;HTU21D;51436;44.692;39.214;2023-09-19T04:43:29;13.59;58.44
64924;HTU21D;51436;44.692;39.214;2023-09-19T04:45:57;13.67;58.35
64924;HTU21D;51436;44.692;39.214;2023-09-19T04:48:26;13.79;58.19
64924;HTU21D;51436;44.692;39.214;2023-09-19T04:50:55;13.88;58.09
64924;HTU21D;51436;44.692;39.214;2023-09-19T04:53:22;13.94;58.03
64924;HTU21D;51436;44.692;39.214;2023-09-19T04:55:52;14.04;57.93
64924;HTU21D;51436;44.692;39.214;2023-09-19T04:58:23;14.09;57.88
64924;HTU21D;51436;44.692;39.214;2023-09-19T05:00:49;14.06;58.05
64924;HTU21D;51436;44.692;39.214;2023-09-19T05:03:17;14.09;58.07
64924;HTU21D;51436;44.692;39.214;2023-09-19T05:05:44;14.05;58.22
64924;HTU21D;51436;44.692;39.214;2023-09-19T05:19:34;14.26;58.21
64924;HTU21D;51436;44.692;39.214;2023-09-19T05:22:04;14.37;58.14
64924;HTU21D;51436;44.692;39.214;2023-09-19T05:24:30;14.43;58.09
64924;HTU21D;51436;44.692;39.214;2023-09-19T05:27:00;14.49;58.03
64924;HTU21D;51436;44.692;39.214;2023-09-19T05:29:54;14.48;58.14
64924;HTU21D;51436;44.692;39.214;2023-09-19T05:32:48;14.57;58.04
64924;HTU21D;51436;44.692;39.214;2023-09-19T05:35:14;14.60;58.03
64924;HTU21D;51436;44.692;39.214;2023-09-19T05:37:41;14.60;58.13
64924;HTU21D;51436;44.692;39.214;2023-09-19T05:40:07;14.67;58.04
64924;HTU21D;51436;44.692;39.214;2023-09-19T05:42:41;14.73;58.05
64924;HTU21D;51436;44.692;39.214;2023-09-19T05:45:10;14.86;57.89
64924;HTU21D;51436;44.692;39.214;2023-09-19T05:47:40;15.00;57.65
64924;HTU21D;51436;44.692;39.214;2023-09-19T05:50:12;15.03;57.68
64924;HTU21D;51436;44.692;39.214;2023-09-19T05:52:38;15.01;57.81
64924;HTU21D;51436;44.692;39.214;2023-09-19T05:55:05;14.98;57.94
64924;HTU21D;51436;44.692;39.214;2023-09-19T05:57:36;15.09;57.87
64924;HTU21D;51436;44.692;39.214;2023-09-19T06:00:29;15.18;57.74
64924;HTU21D;51436;44.692;39.214;2023-09-19T06:02:59;15.30;57.59
64924;HTU21D;51436;44.692;39.214;2023-09-19T06:05:26;15.41;57.47
64924;HTU21D;51436;44.692;39.214;2023-09-19T06:07:54;15.52;57.36
64924;HTU21D;51436;44.692;39.214;2023-09-19T06:10:23;15.68;57.16
64924;HTU21D;51436;44.692;39.214;2023-09-19T06:12:51;15.82;57.00
64924;HTU21D;51436;44.692;39.214;2023-09-19T06:15:23;15.95;56.90
64924;HTU21D;51436;44.692;39.214;2023-09-19T06:17:53;16.02;56.84
64924;HTU21D;51436;44.692;39.214;2023-09-19T06:20:24;16.11;56.78
64924;HTU21D;51436;44.692;39.214;2023-09-19T06:22:51;16.20;56.73
64924;HTU21D;51436;44.692;39.214;2023-09-19T06:25:19;16.28;56.66
64924;HTU21D;51436;44.692;39.214;2023-09-19T06:27:46;16.36;56.63
64924;HTU21D;51436;44.692;39.214;2023-09-19T06:30:13;16.50;56.49
64924;HTU21D;51436;44.692;39.214;2023-09-19T06:32:43;16.63;56.35
64924;HTU21D;51436;44.692;39.214;2023-09-19T06:35:11;16.75;56.23
64924;HTU21D;51436;44.692;39.214;2023-09-19T06:37:38;16.80;56.23
64924;HTU21D;51436;44.692;39.214;2023-09-19T06:40:15;16.94;56.10
64924;HTU21D;51436;44.692;39.214;2023-09-19T06:42:47;17.06;55.96
64924;HTU21D;51436;44.692;39.214;2023-09-19T06:45:16;17.21;55.81
64924;HTU21D;51436;44.692;39.214;2023-09-19T06:47:46;17.38;55.62
64924;HTU21D;51436;44.692;39.214;2023-09-19T06:50:17;17.52;55.48
64924;HTU21D;51436;44.692;39.214;2023-09-19T06:52:45;17.67;55.33
64924;HTU21D;51436;44.692;39.214;2023-09-19T06:55:15;17.83;55.20
64924;HTU21D;51436;44.692;39.214;2023-09-19T06:57:42;17.98;55.05
64924;HTU21D;51436;44.692;39.214;2023-09-19T07:00:13;18.13;54.90
64924;HTU21D;51436;44.692;39.214;2023-09-19T07:03:01;18.33;54.71
64924;HTU21D;51436;44.692;39.214;2023-09-19T07:05:50;18.47;54.62
64924;HTU21D;51436;44.692;39.214;2023-09-19T07:08:17;18.62;54.49
64924;HTU21D;51436;44.692;39.214;2023-09-19T07:10:56;18.80;54.30
64924;HTU21D;51436;44.692;39.214;2023-09-19T07:13:22;18.95;54.17
64924;HTU21D;51436;44.692;39.214;2023-09-19T07:16:10;19.17;53.96
64924;HTU21D;51436;44.692;39.214;2023-09-19T07:18:56;19.42;53.68
64924;HTU21D;51436;44.692;39.214;2023-09-19T07:21:24;19.63;53.44
64924;HTU21D;51436;44.692;39.214;2023-09-19T07:23:50;19.85;53.23
64924;HTU21D;51436;44.692;39.214;2023-09-19T07:26:20;20.03;53.01
64924;HTU21D;51436;44.692;39.214;2023-09-19T07:28:49;20.18;52.91
64924;HTU21D;51436;44.692;39.214;2023-09-19T07:31:16;20.31;52.78
64924;HTU21D;51436;44.692;39.214;2023-09-19T07:33:43;20.47;52.64
64924;HTU21D;51436;44.692;39.214;2023-09-19T07:36:12;20.61;52.51
64924;HTU21D;51436;44.692;39.214;2023-09-19T07:38:43;20.70;52.44
64924;HTU21D;51436;44.692;39.214;2023-09-19T07:41:09;20.86;52.24
64924;HTU21D;51436;44.692;39.214;2023-09-19T07:43:36;21.03;52.02
64924;HTU21D;51436;44.692;39.214;2023-09-19T07:46:06;21.18;51.85
64924;HTU21D;51436;44.692;39.214;2023-09-19T07:48:37;21.27;51.71
64924;HTU21D;51436;44.692;39.214;2023-09-19T07:51:08;21.34;51.64
64924;HTU21D;51436;44.692;39.214;2023-09-19T07:53:35;21.43;51.56
64924;HTU21D;51436;44.692;39.214;2023-09-19T07:56:09;21.53;51.35
64924;HTU21D;51436;44.692;39.214;2023-09-19T07:59:00;21.63;51.33
64924;HTU21D;51436;44.692;39.214;2023-09-19T08:01:27;21.68;51.27
64924;HTU21D;51436;44.692;39.214;2023-09-19T08:03:54;21.74;51.17
64924;HTU21D;51436;44.692;39.214;2023-09-19T08:06:20;21.85;51.02
64924;HTU21D;51436;44.692;39.214;2023-09-19T08:08:46;21.93;50.86
64924;HTU21D;51436;44.692;39.214;2023-09-19T08:11:15;22.04;50.73
64924;HTU21D;51436;44.692;39.214;2023-09-19T08:13:47;22.13;50.56
64924;HTU21D;51436;44.692;39.214;2023-09-19T08:16:16;22.22;50.43
64924;HTU21D;51436;44.692;39.214;2023-09-19T08:18:47;22.28;50.30
64924;HTU21D;51436;44.692;39.214;2023-09-19T08:21:14;22.31;50.27
64924;HTU21D;51436;44.692;39.214;2023-09-19T08:23:42;22.38;50.14
64924;HTU21D;51436;44.692;39.214;2023-09-19T08:26:09;22.44;50.02
64924;HTU21D;51436;44.692;39.214;2023-09-19T08:28:37;22.54;49.87
64924;HTU21D;51436;44.692;39.214;2023-09-19T08:31:07;22.61;49.74
64924;HTU21D;51436;44.692;39.214;2023-09-19T08:33:36;22.65;49.68
64924;HTU21D;51436;44.692;39.214;2023-09-19T08:36:04;22.67;49.61
64924;HTU21D;51436;44.692;39.214;2023-09-19T08:38:33;22.71;49.52
64924;HTU21D;51436;44.692;39.214;2023-09-19T08:41:04;22.86;49.32
64924;HTU21D;51436;44.692;39.214;2023-09-19T08:43:30;22.93;49.22
64924;HTU21D;51436;44.692;39.214;2023-09-19T08:46:11;22.99;49.18
64924;HTU21D;51436;44.692;39.214;2023-09-19T08:59:48;23.09;49.02
64924;HTU21D;51436;44.692;39.214;2023-09-19T09:02:18;23.10;48.95
64924;HTU21D;51436;44.692;39.214;2023-09-19T09:04:46;23.22;48.72
64924;HTU21D;51436;44.692;39.214;2023-09-19T09:07:15;23.29;48.55
64924;HTU21D;51436;44.692;39.214;2023-09-19T09:10:09;23.37;48.42
64924;HTU21D;51436;44.692;39.214;2023-09-19T09:13:00;23.38;48.57
64924;HTU21D;51436;44.692;39.214;2023-09-19T09:15:29;23.42;48.41
64924;HTU21D;51436;44.692;39.214;2023-09-19T09:17:59;23.43;48.37
64924;HTU21D;51436;44.692;39.214;2023-09-19T09:20:25;23.44;48.33
64924;HTU21D;51436;44.692;39.214;2023-09-19T09:22:56;23.53;48.15
64924;HTU21D;51436;44.692;39.214;2023-09-19T09:25:49;23.56;48.02
64924;HTU21D;51436;44.692;39.214;2023-09-19T09:28:38;23.57;47.97
64924;HTU21D;51436;44.692;39.214;2023-09-19T09:31:23;23.62;47.89
64924;HTU21D;51436;44.692;39.214;2023-09-19T09:33:57;23.70;47.75
64924;HTU21D;51436;44.692;39.214;2023-09-19T09:36:39;23.75;47.60
64924;HTU21D;51436;44.692;39.214;2023-09-19T09:39:15;23.80;47.50
64924;HTU21D;51436;44.692;39.214;2023-09-19T09:41:45;23.81;47.49
64924;HTU21D;51436;44.692;39.214;2023-09-19T09:44:18;23.86;47.41
64924;HTU21D;51436;44.692;39.214;2023-09-19T09:46:49;23.88;47.30
64924;HTU21D;51436;44.692;39.214;2023-09-19T09:49:25;23.97;47.15
64924;HTU21D;51436;44.692;39.214;2023-09-19T09:52:17;24.02;47.02
64924;HTU21D;51436;44.692;39.214;2023-09-19T09:55:03;24.03;47.00
64924;HTU21D;51436;44.692;39.214;2023-09-19T09:57:33;24.11;46.88
64924;HTU21D;51436;44.692;39.214;2023-09-19T10:00:01;24.19;46.70
64924;HTU21D;51436;44.692;39.214;2023-09-19T10:02:38;24.26;46.62
64924;HTU21D;51436;44.692;39.214;2023-09-19T10:05:17;24.32;46.40
64924;HTU21D;51436;44.692;39.214;2023-09-19T10:08:11;24.35;46.32
64924;HTU21D;51436;44.692;39.214;2023-09-19T10:10:40;24.39;46.28
64924;HTU21D;51436;44.692;39.214;2023-09-19T10:13:11;24.41;46.20
64924;HTU21D;51436;44.692;39.214;2023-09-19T10:15:49;24.47;46.06
64924;HTU21D;51436;44.692;39.214;2023-09-19T10:18:24;24.54;45.93
64924;HTU21D;51436;44.692;39.214;2023-09-19T10:20:51;24.57;45.81
64924;HTU21D;51436;44.692;39.214;2023-09-19T10:23:20;24.60;45.75
64924;HTU21D;51436;44.692;39.214;2023-09-19T10:25:50;24.71;45.57
64924;HTU21D;51436;44.692;39.214;2023-09-19T10:28:19;24.71;45.51
64924;HTU21D;51436;44.692;39.214;2023-09-19T10:30:51;24.73;45.51
64924;HTU21D;51436;44.692;39.214;2023-09-19T10:33:21;24.77;45.38
64924;HTU21D;51436;44.692;39.214;2023-09-19T10:35:51;24.85;45.27
64924;HTU21D;51436;44.692;39.214;2023-09-19T10:38:19;24.88;45.16
64924;HTU21D;51436;44.692;39.214;2023-09-19T10:40:52;24.94;45.08
64924;HTU21D;51436;44.692;39.214;2023-09-19T10:44:02;24.95;45.07
64924;HTU21D;51436;44.692;39.214;2023-09-19T10:47:12;24.98;45.07
64924;HTU21D;51436;44.692;39.214;2023-09-19T10:53:39;25.05;44.93
64924;HTU21D;51436;44.692;39.214;2023-09-19T10:56:09;25.06;44.94
64924;HTU21D;51436;44.692;39.214;2023-09-19T10:58:43;25.07;44.89
64924;HTU21D;51436;44.692;39.214;2023-09-19T11:01:16;25.03;44.90
64924;HTU21D;51436;44.692;39.214;2023-09-19T11:03:47;25.09;44.80
64924;HTU21D;51436;44.692;39.214;2023-09-19T11:06:18;25.12;44.74
64924;HTU21D;51436;44.692;39.214;2023-09-19T11:30:44;25.35;44.12
64924;HTU21D;51436;44.692;39.214;2023-09-19T11:33:34;25.42;43.97
64924;HTU21D;51436;44.692;39.214;2023-09-19T11:36:11;25.44;43.86
64924;HTU21D;51436;44.692;39.214;2023-09-19T11:46:34;25.50;43.71
64924;HTU21D;51436;44.692;39.214;2023-09-19T11:49:07;25.51;43.64
64924;HTU21D;51436;44.692;39.214;2023-09-19T11:52:02;25.51;43.68
64924;HTU21D;51436;44.692;39.214;2023-09-19T11:54:36;25.54;43.58
64924;HTU21D;51436;44.692;39.214;2023-09-19T11:57:09;25.57;43.51
64924;HTU21D;51436;44.692;39.214;2023-09-19T11:59:39;25.60;43.45
64924;HTU21D;51436;44.692;39.214;2023-09-19T12:02:07;25.63;43.38
64924;HTU21D;51436;44.692;39.214;2023-09-19T12:04:43;25.66;43.24
64924;HTU21D;51436;44.692;39.214;2023-09-19T12:07:14;25.69;43.16
64924;HTU21D;51436;44.692;39.214;2023-09-19T12:09:50;25.68;43.19
64924;HTU21D;51436;44.692;39.214;2023-09-19T12:12:24;25.65;43.16
64924;HTU21D;51436;44.692;39.214;2023-09-19T12:14:55;25.66;43.13
64924;HTU21D;51436;44.692;39.214;2023-09-19T12:17:40;25.66;43.09
64924;HTU21D;51436;44.692;39.214;2023-09-19T12:20:10;25.68;43.05
64924;HTU21D;51436;44.692;39.214;2023-09-19T12:22:45;25.71;42.96
64924;HTU21D;51436;44.692;39.214;2023-09-19T12:25:14;25.72;42.89
64924;HTU21D;51436;44.692;39.214;2023-09-19T12:27:44;25.73;42.80
64924;HTU21D;51436;44.692;39.214;2023-09-19T12:41:51;25.71;42.81
64924;HTU21D;51436;44.692;39.214;2023-09-19T12:44:19;25.68;42.74
64924;HTU21D;51436;44.692;39.214;2023-09-19T12:46:46;25.67;42.72
64924;HTU21D;51436;44.692;39.214;2023-09-19T12:49:19;25.68;42.65
64924;HTU21D;51436;44.692;39.214;2023-09-19T12:51:48;25.64;42.86
64924;HTU21D;51436;44.692;39.214;2023-09-19T12:54:15;25.68;42.71
64924;HTU21D;51436;44.692;39.214;2023-09-19T12:56:45;25.69;42.62
64924;HTU21D;51436;44.692;39.214;2023-09-19T12:59:15;25.71;42.54
64924;HTU21D;51436;44.692;39.214;2023-09-19T13:01:42;25.72;42.48
64924;HTU21D;51436;44.692;39.214;2023-09-19T13:04:19;25.72;42.41
64924;HTU21D;51436;44.692;39.214;2023-09-19T13:06:47;25.71;42.42
64924;HTU21D;51436;44.692;39.214;2023-09-19T13:09:16;25.69;42.38
64924;HTU21D;51436;44.692;39.214;2023-09-19T13:11:43;25.68;42.32
64924;HTU21D;51436;44.692;39.214;2023-09-19T13:14:16;25.71;42.26
64924;HTU21D;51436;44.692;39.214;2023-09-19T13:17:01;25.72;42.21
64924;HTU21D;51436;44.692;39.214;2023-09-19T13:19:47;25.72;42.21
64924;HTU21D;51436;44.692;39.214;2023-09-19T13:25:17;25.67;42.17
64924;HTU21D;51436;44.692;39.214;2023-09-19T13:28:05;25.67;42.19
64924;HTU21D;51436;44.692;39.214;2023-09-19T13:30:31;25.67;42.10
64924;HTU21D;51436;44.692;39.214;2023-09-19T13:33:10;25.69;42.04
64924;HTU21D;51436;44.692;39.214;2023-09-19T13:35:39;25.72;41.97
64924;HTU21D;51436;44.692;39.214;2023-09-19T13:38:08;25.71;41.94
64924;HTU21D;51436;44.692;39.214;2023-09-19T13:40:39;25.67;41.90
64924;HTU21D;51436;44.692;39.214;2023-09-19T13:43:08;25.68;41.88
64924;HTU21D;51436;44.692;39.214;2023-09-19T13:45:34;25.67;41.87
64924;HTU21D;51436;44.692;39.214;2023-09-19T13:48:01;25.66;41.84
64924;HTU21D;51436;44.692;39.214;2023-09-19T13:50:27;25.64;41.80
64924;HTU21D;51436;44.692;39.214;2023-09-19T13:52:55;25.60;41.81
64924;HTU21D;51436;44.692;39.214;2023-09-19T13:55:21;25.59;41.81
64924;HTU21D;51436;44.692;39.214;2023-09-19T13:57:48;25.58;41.78
64924;HTU21D;51436;44.692;39.214;2023-09-19T14:00:22;25.54;41.77
64924;HTU21D;51436;44.692;39.214;2023-09-19T14:02:49;25.50;41.77
64924;HTU21D;51436;44.692;39.214;2023-09-19T14:05:16;25.48;41.78
64924;HTU21D;51436;44.692;39.214;2023-09-19T14:07:43;25.44;41.80
64924;HTU21D;51436;44.692;39.214;2023-09-19T14:10:10;25.39;41.81
64924;HTU21D;51436;44.692;39.214;2023-09-19T14:12:38;25.36;41.81
64924;HTU21D;51436;44.692;39.214;2023-09-19T14:15:08;25.31;41.82
64924;HTU21D;51436;44.692;39.214;2023-09-19T14:17:34;25.25;41.87
64924;HTU21D;51436;44.692;39.214;2023-09-19T14:20:07;25.20;41.91
64924;HTU21D;51436;44.692;39.214;2023-09-19T14:22:36;25.14;41.97
64924;HTU21D;51436;44.692;39.214;2023-09-19T14:25:04;25.05;42.02
64924;HTU21D;51436;44.692;39.214;2023-09-19T14:27:30;25.01;42.05
64924;HTU21D;51436;44.692;39.214;2023-09-19T14:29:57;24.93;42.09
64924;HTU21D;51436;44.692;39.214;2023-09-19T14:32:26;24.90;42.11
64924;HTU21D;51436;44.692;39.214;2023-09-19T14:34:52;24.82;42.17
64924;HTU21D;51436;44.692;39.214;2023-09-19T14:37:19;24.73;42.25
64924;HTU21D;51436;44.692;39.214;2023-09-19T14:39:47;24.69;42.26
64924;HTU21D;51436;44.692;39.214;2023-09-19T14:42:14;24.63;42.29
64924;HTU21D;51436;44.692;39.214;2023-09-19T14:44:43;24.57;42.33
64924;HTU21D;51436;44.692;39.214;2023-09-19T14:47:10;24.50;42.36
64924;HTU21D;51436;44.692;39.214;2023-09-19T14:49:39;24.42;42.45
64924;HTU21D;51436;44.692;39.214;2023-09-19T14:52:07;24.39;42.48
64924;HTU21D;51436;44.692;39.214;2023-09-19T14:54:34;24.32;42.52
64924;HTU21D;51436;44.692;39.214;2023-09-19T14:57:00;24.24;42.59
64924;HTU21D;51436;44.692;39.214;2023-09-19T14:59:33;24.14;42.71
64924;HTU21D;51436;44.692;39.214;2023-09-19T15:02:06;24.03;42.84
64924;HTU21D;51436;44.692;39.214;2023-09-19T15:04:33;23.92;42.91
64924;HTU21D;51436;44.692;39.214;2023-09-19T15:07:00;23.85;42.98
64924;HTU21D;51436;44.692;39.214;2023-09-19T15:09:26;23.76;43.06
64924;HTU21D;51436;44.692;39.214;2023-09-19T15:12:05;23.68;43.13
64924;HTU21D;51436;44.692;39.214;2023-09-19T15:14:35;23.57;43.23
64924;HTU21D;51436;44.692;39.214;2023-09-19T15:17:07;23.47;43.33
64924;HTU21D;51436;44.692;39.214;2023-09-19T15:19:34;23.36;43.46
64924;HTU21D;51436;44.692;39.214;2023-09-19T15:22:01;23.23;43.61
64924;HTU21D;51436;44.692;39.214;2023-09-19T15:24:28;23.11;43.76
64924;HTU21D;51436;44.692;39.214;2023-09-19T15:26:54;22.98;43.90
64924;HTU21D;51436;44.692;39.214;2023-09-19T15:29:21;22.86;44.04
64924;HTU21D;51436;44.692;39.214;2023-09-19T15:31:48;22.73;44.16
64924;HTU21D;51436;44.692;39.214;2023-09-19T15:34:15;22.65;44.25
64924;HTU21D;51436;44.692;39.214;2023-09-19T15:36:42;22.56;44.33
64924;HTU21D;51436;44.692;39.214;2023-09-19T15:39:08;22.49;44.41
64924;HTU21D;51436;44.692;39.214;2023-09-19T15:41:42;22.37;44.54
64924;HTU21D;51436;44.692;39.214;2023-09-19T15:44:15;22.22;44.76
64924;HTU21D;51436;44.692;39.214;2023-09-19T15:46:42;22.07;45.03
64924;HTU21D;51436;44.692;39.214;2023-09-19T15:49:11;21.92;45.28
64924;HTU21D;51436;44.692;39.214;2023-09-19T15:51:39;21.74;45.54
64924;HTU21D;51436;44.692;39.214;2023-09-19T15:54:13;21.60;45.79
64924;HTU21D;51436;44.692;39.214;2023-09-19T15:56:44;21.43;46.07
64924;HTU21D;51436;44.692;39.214;2023-09-19T15:59:14;21.27;46.31
64924;HTU21D;51436;44.692;39.214;2023-09-19T16:01:44;21.15;46.47
64924;HTU21D;51436;44.692;39.214;2023-09-19T16:04:33;20.93;46.83
64924;HTU21D;51436;44.692;39.214;2023-09-19T16:07:00;20.77;47.13
64924;HTU21D;51436;44.692;39.214;2023-09-19T16:20:48;20.03;48.24
64924;HTU21D;51436;44.692;39.214;2023-09-19T16:23:16;19.90;48.53
64924;HTU21D;51436;44.692;39.214;2023-09-19T16:25:46;19.83;48.64
64924;HTU21D;51436;44.692;39.214;2023-09-19T16:28:13;19.75;48.77
64924;HTU21D;51436;44.692;39.214;2023-09-19T16:30:39;19.69;48.87
64924;HTU21D;51436;44.692;39.214;2023-09-19T16:33:06;19.59;49.02
64924;HTU21D;51436;44.692;39.214;2023-09-19T16:35:37;19.53;49.16
64924;HTU21D;51436;44.692;39.214;2023-09-19T16:38:04;19.44;49.29
64924;HTU21D;51436;44.692;39.214;2023-09-19T16:40:34;19.38;49.40
64924;HTU21D;51436;44.692;39.214;2023-09-19T16:43:00;19.28;49.56
64924;HTU21D;51436;44.692;39.214;2023-09-19T16:45:27;19.21;49.70
64924;HTU21D;51436;44.692;39.214;2023-09-19T16:47:59;19.13;49.79
64924;HTU21D;51436;44.692;39.214;2023-09-19T16:50:26;19.07;49.92
64924;HTU21D;51436;44.692;39.214;2023-09-19T16:52:52;18.99;50.02
64924;HTU21D;51436;44.692;39.214;2023-09-19T16:55:19;18.92;50.15
64924;HTU21D;51436;44.692;39.214;2023-09-19T16:57:46;18.86;50.27
64924;HTU21D;51436;44.692;39.214;2023-09-19T17:00:13;18.77;50.41
64924;HTU21D;51436;44.692;39.214;2023-09-19T17:02:46;18.67;50.56
64924;HTU21D;51436;44.692;39.214;2023-09-19T17:05:13;18.62;50.66
64924;HTU21D;51436;44.692;39.214;2023-09-19T17:07:40;18.54;50.79
64924;HTU21D;51436;44.692;39.214;2023-09-19T17:10:07;18.43;50.98
64924;HTU21D;51436;44.692;39.214;2023-09-19T17:12:34;18.35;51.11